Time;durP1;ratioP1;P1;durP2;ratioP2;P2;SDS_P1;SDS_P2;PMS_P1;PMS_P2;Temp;Humidity;BMP_temperature;BMP_pressure;BME280_temperature;BME280_humidity;BME280_pressure;Samples;Min_cycle;Max_cycle;Signal;HPM_P1;HPM_P2
2022/09/29 00:01:12;;;;;;;;;;;;;;;7.02;100.00;94283.34;10576880;27;2897;-69
2022/09/29 00:06:16;;;;;;;;;;;;;;;7.04;100.00;94294.53;10562580;28;3082;-69
2022/09/29 00:11:20;;;;;;;;;;;;;;;7.10;100.00;94294.47;10551704;28;3029;-68
2022/09/29 00:16:23;;;;;;;;;;;;;;;7.20;100.00;94297.00;10561017;28;2977;-69
2022/09/29 00:21:27;;;;;;;;;;;;;;;7.28;100.00;94289.13;10570283;28;3052;-69
2022/09/29 00:26:30;;;;;;;;;;;;;;;7.29;100.00;94279.22;10556225;28;3376;-69
2022/09/29 00:31:33;;;;;;;;;;;;;;;7.37;100.00;94291.94;10560750;28;2757;-70
2022/09/29 00:36:37;;;;;;;;;;;;;;;7.36;100.00;94277.00;10553555;28;2747;-70
2022/09/29 00:41:41;;;;;;;;;;;;;;;7.31;100.00;94283.19;10566063;28;3026;-69
2022/09/29 00:46:44;;;;;;;;;;;;;;;7.36;100.00;94273.53;10563006;28;3599;-69
2022/09/29 00:51:49;;;;;;;;;;;;;;;7.33;100.00;94269.56;10564744;28;2955;-68
2022/09/29 00:56:53;;;;;;;;;;;;;;;7.37;100.00;94249.16;10556050;28;3074;-69
2022/09/29 01:01:56;;;;;;;;;;;;;;;7.37;100.00;94249.16;10544018;28;3220;-68
2022/09/29 01:07:00;;;;;;;;;;;;;;;7.22;100.00;94241.38;10560989;28;2739;-68
2022/09/29 01:12:03;;;;;;;;;;;;;;;7.15;100.00;94248.97;10557334;28;2754;-75
2022/09/29 01:17:06;;;;;;;;;;;;;;;6.98;100.00;94241.44;10561268;28;3073;-72
2022/09/29 01:22:10;;;;;;;;;;;;;;;6.99;100.00;94251.84;10552796;28;2738;-71
2022/09/29 01:27:13;;;;;;;;;;;;;;;7.03;100.00;94238.72;10545199;28;3148;-71
2022/09/29 01:32:16;;;;;;;;;;;;;;;7.09;100.00;94244.78;10560968;28;3028;-68
2022/09/29 01:37:19;;;;;;;;;;;;;;;7.02;100.00;94258.50;10568945;28;2718;-69
2022/09/29 01:42:23;;;;;;;;;;;;;;;7.10;100.00;94251.72;10570497;28;3113;-68
2022/09/29 01:47:26;;;;;;;;;;;;;;;7.16;100.00;94247.88;10566118;28;3050;-70
2022/09/29 01:52:29;;;;;;;;;;;;;;;7.09;100.00;94239.44;10562304;28;2690;-68
2022/09/29 01:57:32;;;;;;;;;;;;;;;7.10;100.00;94243.69;10567848;28;3157;-67
2022/09/29 02:02:35;;;;;;;;;;;;;;;7.08;100.00;94235.97;10568849;28;3206;-69
2022/09/29 02:07:39;;;;;;;;;;;;;;;7.12;100.00;94246.88;10569872;28;3295;-69
2022/09/29 02:12:42;;;;;;;;;;;;;;;7.17;100.00;94252.13;10573245;28;3111;-69
2022/09/29 02:17:46;;;;;;;;;;;;;;;7.13;100.00;94237.78;10568806;28;2738;-71
2022/09/29 02:22:50;;;;;;;;;;;;;;;7.22;100.00;94242.19;10564370;28;2838;-67
2022/09/29 02:27:53;;;;;;;;;;;;;;;7.10;100.00;94235.69;10566859;28;3134;-69
2022/09/29 02:32:56;;;;;;;;;;;;;;;7.09;100.00;94237.56;10562809;28;3023;-69
2022/09/29 02:38:00;;;;;;;;;;;;;;;7.18;100.00;94240.38;10566211;28;3044;-69
2022/09/29 02:43:03;;;;;;;;;;;;;;;7.20;100.00;94248.91;10566261;28;2991;-69
2022/09/29 02:48:06;;;;;;;;;;;;;;;7.19;100.00;94252.63;10564239;28;2773;-68
2022/09/29 02:53:09;;;;;;;;;;;;;;;7.16;100.00;94247.88;10560014;28;3041;-70
2022/09/29 02:58:12;;;;;;;;;;;;;;;7.27;100.00;94244.00;10560153;28;3040;-69
2022/09/29 03:03:16;;;;;;;;;;;;;;;7.25;100.00;94235.44;10572299;28;3095;-68
2022/09/29 03:08:19;;;;;;;;;;;;;;;7.20;100.00;94232.88;10568454;28;2995;-71
2022/09/29 03:13:22;;;;;;;;;;;;;;;7.22;100.00;94220.78;10570748;28;3038;-74
2022/09/29 03:18:26;;;;;;;;;;;;;;;7.20;100.00;94222.97;10564174;28;2770;-73
2022/09/29 03:23:29;;;;;;;;;;;;;;;7.19;100.00;94217.91;10557474;28;3018;-71
2022/09/29 03:28:32;;;;;;;;;;;;;;;7.20;100.00;94217.63;10559682;28;3030;-69
2022/09/29 03:33:37;;;;;;;;;;;;;;;7.23;100.00;94226.94;10568987;28;3053;-69
2022/09/29 03:38:42;;;;;;;;;;;;;;;7.27;100.00;94227.94;10559491;28;3070;-69
2022/09/29 03:43:46;;;;;;;;;;;;;;;7.35;100.00;94219.28;10559555;28;2789;-68
2022/09/29 03:48:49;;;;;;;;;;;;;;;7.31;100.00;94207.56;10551098;28;2890;-68
2022/09/29 03:53:52;;;;;;;;;;;;;;;7.31;100.00;94210.22;10558098;28;3129;-69
2022/09/29 03:58:56;;;;;;;;;;;;;;;7.35;100.00;94221.94;10570484;28;2817;-73
2022/09/29 04:04:05;;;;;;;;;;;;;;;7.43;100.00;94231.19;10557778;28;3260;-69
2022/09/29 04:09:08;;;;;;;;;;;;;;;7.50;100.00;94232.38;10569646;28;3078;-68
2022/09/29 04:14:12;;;;;;;;;;;;;;;7.50;100.00;94236.94;10563660;28;3109;-69
2022/09/29 04:19:15;;;;;;;;;;;;;;;7.58;100.00;94231.75;10562739;28;3132;-69
2022/09/29 04:24:18;;;;;;;;;;;;;;;7.57;100.00;94226.66;10559011;28;2740;-69
2022/09/29 04:29:21;;;;;;;;;;;;;;;7.45;100.00;94239.72;10568132;28;3104;-69
2022/09/29 04:34:24;;;;;;;;;;;;;;;7.52;100.00;94227.56;10560217;28;2721;-70
2022/09/29 04:39:28;;;;;;;;;;;;;;;7.55;100.00;94229.63;10531269;28;3036;-69
2022/09/29 04:44:30;;;;;;;;;;;8.50;99.90;;;7.64;100.00;94237.00;10549808;28;3044;-69
2022/09/29 04:49:33;;;;;;;;;;;8.70;99.90;;;7.59;100.00;94241.34;10556814;28;2750;-70
2022/09/29 04:54:36;;;;;;;;;;;8.80;99.90;;;7.52;100.00;94229.44;10565201;28;3035;-70
2022/09/29 04:59:39;;;;;;;;;;;8.60;99.90;;;7.52;100.00;94216.88;10556780;28;3123;-72
2022/09/29 05:04:43;;;;;;;;;;;8.50;99.90;;;7.45;100.00;94210.31;10568613;28;3219;-68
2022/09/29 05:09:46;;;;;;;;;;;8.50;99.90;;;7.39;100.00;94206.91;10569269;28;3191;-69
2022/09/29 05:14:49;;;;;;;;;;;8.40;99.90;;;7.36;100.00;94210.16;10568325;28;3292;-71
2022/09/29 05:19:51;;;;;;;;;;;8.30;99.90;;;7.30;100.00;94205.97;10565541;28;3391;-69
2022/09/29 05:24:54;;;;;;;;;;;8.30;99.90;;;7.30;100.00;94211.31;10573110;28;3187;-69
2022/09/29 05:29:57;;;;;;;;;;;8.30;99.90;;;7.23;100.00;94213.56;10566181;28;2891;-72
2022/09/29 05:34:59;;;;;;;;;;;8.30;99.90;;;7.25;100.00;94214.06;10566688;28;3212;-71
2022/09/29 05:40:03;;;;;;;;;;;8.30;99.90;;;7.25;100.00;94200.69;10563025;28;3263;-71
2022/09/29 05:45:07;;;;;;;;;;;8.30;99.90;;;7.32;100.00;94193.13;10565904;28;3014;-72
2022/09/29 05:50:11;;;;;;;;;;;;;;;7.29;100.00;94196.38;10563837;28;2898;-69
2022/09/29 05:55:14;;;;;;;;;;;;;;;7.40;100.00;94205.03;10554557;28;3227;-70
2022/09/29 06:00:17;;;;;;;;;;;;;;;7.45;100.00;94204.97;10570994;28;2988;-69
2022/09/29 06:05:20;;;;;;;;;;;;;;;7.58;100.00;94202.34;10559391;28;3183;-70
2022/09/29 06:10:24;;;;;;;;;;;;;;;7.81;100.00;94203.25;10566645;28;3291;-70
2022/09/29 06:15:27;;;;;;;;;;;;;;;7.88;100.00;94202.09;10552482;28;3386;-70
2022/09/29 06:20:37;;;;;;;;;;;;;;;8.00;100.00;94203.19;10556525;28;3199;-71
2022/09/29 06:25:40;;;;;;;;;;;;;;;8.15;100.00;94196.78;10565590;28;3251;-69
2022/09/29 06:30:43;;;;;;;;;;;;;;;7.97;100.00;94194.97;10568252;28;3168;-69
2022/09/29 06:41:07;;;;;;;;;;;;;;;8.18;100.00;94187.38;10561418;28;2902;-76
2022/09/29 06:46:11;;;;;;;;;;;;;;;8.33;100.00;94197.78;10563313;28;3223;-71
2022/09/29 06:51:14;;;;;;;;;;;;;;;8.81;100.00;94208.09;10560852;28;3080;-66
2022/09/29 06:56:19;;;;;;;;;;;;;;;8.88;100.00;94211.94;10552789;28;3334;-66
2022/09/29 07:01:31;;;;;;;;;;;;;;;9.15;100.00;94216.44;10566241;28;3135;-67
2022/09/29 07:11:41;;;;;;;;;;;;;;;9.27;100.00;94207.09;10550596;28;3170;-66
2022/09/29 07:16:44;;;;;;;;;;;;;;;9.38;100.00;94209.25;10553608;28;3147;-67
2022/09/29 07:21:47;;;;;;;;;;;;;;;9.43;100.00;94211.81;10556244;28;3283;-67
2022/09/29 07:26:51;;;;;;;;;;;;;;;9.40;100.00;94217.75;10559471;28;2892;-66
2022/09/29 07:32:01;;;;;;;;;;;;;;;9.46;100.00;94213.06;10557352;28;2896;-68
2022/09/29 07:37:04;;;;;;;;;;;;;;;9.42;100.00;94217.47;10550940;28;3494;-71
2022/09/29 07:42:08;;;;;;;;;;;;;;;9.48;100.00;94216.28;10564950;28;3049;-67
2022/09/29 07:47:12;;;;;;;;;;;;;;;9.33;100.00;94221.97;10550530;28;3151;-67
2022/09/29 07:52:15;;;;;;;;;;;;;;;9.47;100.00;94217.34;10557877;28;3119;-66
2022/09/29 07:57:19;;;;;;;;;;;;;;;9.65;100.00;94219.06;10556903;28;3191;-67
2022/09/29 08:02:24;;;;;;;;;;;;;;;9.61;100.00;94215.41;10558196;28;3188;-68
2022/09/29 08:07:28;;;;;;;;;;;;;;;9.59;100.00;94214.13;10561122;28;2931;-76
2022/09/29 08:12:31;;;;;;;;;;;;;;;9.66;100.00;94223.31;10557958;28;3124;-66
2022/09/29 08:17:46;;;;;;;;;;;;;;;9.23;100.00;94223.00;10563892;28;2872;-66
2022/09/29 08:22:49;;;;;;;;;;;;;;;9.62;100.00;94235.78;10539219;28;3030;-65
2022/09/29 08:27:54;;;;;;;;;;;;;;;9.72;100.00;94240.09;10539756;28;2907;-70
2022/09/29 08:32:58;;;;;;;;;;;;;;;9.48;100.00;94241.19;10544283;28;2953;-68
2022/09/29 08:38:01;;;;;;;;;;;;;;;9.35;100.00;94251.94;10558826;28;2830;-66
2022/09/29 08:43:04;;;;;;;;;;;;;;;9.18;100.00;94242.66;10548453;28;3266;-71
2022/09/29 08:48:07;;;;;;;;;;;;;;;9.47;100.00;94238.78;10561340;28;3360;-66
2022/09/29 08:53:24;;;;;;;;;;;;;;;9.77;100.00;94247.22;10553258;28;2839;-66
2022/09/29 08:58:32;;;;;;;;;;;;;;;9.83;100.00;94246.00;10550202;28;3125;-69
2022/09/29 09:03:35;;;;;;;;;;;;;;;10.05;100.00;94245.97;10533294;28;3302;-71
2022/09/29 09:08:40;;;;;;;;;;;;;;;9.80;100.00;94254.66;10547859;28;3497;-70
2022/09/29 09:13:43;;;;;;;;;;;;;;;9.51;100.00;94255.09;10546981;28;2859;-69
2022/09/29 09:18:47;;;;;;;;;;;10.60;99.90;;;9.60;100.00;94248.69;10553902;28;3254;-69
2022/09/29 09:23:50;;;;;;;;;;;10.50;99.90;;;9.38;100.00;94268.25;10556103;28;3168;-72
2022/09/29 09:28:57;;;;;;;;;;;10.50;99.90;;;9.14;100.00;94271.16;10541292;28;2891;-69
2022/09/29 09:33:59;;;;;;;;;;;10.20;99.90;;;9.23;100.00;94273.16;10529904;28;2843;-69
2022/09/29 09:39:18;;;;;;;;;;;10.20;99.90;;;9.29;100.00;94275.41;10547981;28;3179;-70
2022/09/29 09:44:20;;;;;;;;;;;10.30;99.90;;;8.98;100.00;94275.28;10547332;28;3362;-68
2022/09/29 09:49:24;;;;;;;;;;;10.10;99.90;;;8.91;100.00;94272.22;10543782;28;3180;-69
2022/09/29 09:54:27;;;;;;;;;;;10.10;99.90;;;9.08;100.00;94272.38;10551541;28;2835;-69
2022/09/29 09:59:30;;;;;;;;;;;10.00;99.90;;;9.22;100.00;94275.00;10554971;28;3336;-70
2022/09/29 10:04:33;;;;;;;;;;;10.10;99.90;;;9.33;100.00;94279.06;10545599;28;3184;-76
2022/09/29 10:09:36;;;;;;;;;;;10.10;99.90;;;9.39;100.00;94285.13;10557705;28;3100;-76
2022/09/29 10:14:39;;;;;;;;;;;10.30;99.90;;;9.05;100.00;94283.69;10557789;28;3301;-74
2022/09/29 10:19:42;;;;;;;;;;;10.20;99.90;;;9.29;100.00;94285.31;10564979;28;2879;-72
2022/09/29 10:24:45;;;;;;;;;;;10.10;99.90;;;9.75;100.00;94285.13;10556534;28;3276;-68
2022/09/29 10:29:48;;;;;;;;;;;10.30;99.90;;;9.81;100.00;94285.78;10565646;28;3202;-69
2022/09/29 10:34:51;;;;;;;;;;;10.60;99.90;;;10.06;100.00;94285.19;10546344;28;3144;-69
2022/09/29 10:39:53;;;;;;;;;;;10.80;99.90;;;10.01;100.00;94290.66;10561337;28;2891;-69
2022/09/29 10:44:57;;;;;;;;;;;10.80;99.90;;;9.85;100.00;94290.22;10559699;28;2843;-68
2022/09/29 10:50:00;;;;;;;;;;;10.90;99.90;;;9.81;100.00;94296.53;10547239;28;3171;-69
2022/09/29 10:55:13;;;;;;;;;;;10.70;99.90;;;9.84;100.00;94294.00;10560642;28;3179;-70
2022/09/29 11:00:16;;;;;;;;;;;;;;;9.81;100.00;94293.84;10552706;28;3408;-72
2022/09/29 11:05:21;;;;;;;;;;;;;;;10.15;100.00;94291.38;10559154;28;3460;-70
2022/09/29 11:10:24;;;;;;;;;;;;;;;10.17;100.00;94299.91;10560121;28;3136;-69
2022/09/29 11:15:27;;;;;;;;;;;;;;;10.27;100.00;94302.38;10561401;28;3143;-69
2022/09/29 11:20:30;;;;;;;;;;;11.20;99.90;;;10.74;100.00;94297.41;10559004;28;3184;-69
2022/09/29 11:25:34;;;;;;;;;;;;;;;10.92;100.00;94297.47;10563456;28;3179;-70
2022/09/29 11:30:36;;;;;;;;;;;11.70;99.90;;;11.26;100.00;94286.81;10556897;28;3112;-70
2022/09/29 11:35:40;;;;;;;;;;;11.80;99.90;;;11.42;100.00;94300.59;10560530;28;2873;-69
2022/09/29 11:40:46;;;;;;;;;;;12.00;99.90;;;10.53;100.00;94307.09;10573641;27;3199;-70
2022/09/29 11:45:49;;;;;;;;;;;11.80;99.90;;;10.43;100.00;94308.19;10562911;28;3189;-68
2022/09/29 11:50:52;;;;;;;;;;;11.60;99.90;;;10.35;100.00;94322.34;10552047;28;2959;-69
2022/09/29 11:55:55;;;;;;;;;;;11.30;99.90;;;10.31;100.00;94325.94;10566279;28;3128;-68
2022/09/29 12:00:59;;;;;;;;;;;11.20;99.90;;;10.25;100.00;94323.41;10560034;28;2815;-69
2022/09/29 12:06:02;;;;;;;;;;;11.20;99.90;;;9.90;100.00;94326.88;10542572;28;3199;-69
2022/09/29 12:11:05;;;;;;;;;;;11.10;99.90;;;9.92;100.00;94320.09;10555222;28;1918;-69
2022/09/29 12:16:28;;;;;;;;;;;11.00;99.90;;;9.84;100.00;94323.53;10552446;28;3187;-69
2022/09/29 12:21:31;;;;;;;;;;;10.90;99.90;;;9.90;100.00;94327.69;10544874;28;3144;-70
2022/09/29 12:26:34;;;;;;;;;;;10.90;99.90;;;9.83;100.00;94326.53;10550093;28;3196;-69
2022/09/29 12:31:37;;;;;;;;;;;10.80;99.90;;;9.69;100.00;94329.25;10548747;28;3261;-69
2022/09/29 12:36:49;;;;;;;;;;;10.80;99.90;;;9.56;100.00;94325.50;10546009;28;3597;-69
2022/09/29 12:41:53;;;;;;;;;;;10.50;99.90;;;9.37;100.00;94320.28;10553000;28;2833;-69
2022/09/29 12:46:55;;;;;;;;;;;10.30;99.90;;;9.28;100.00;94326.66;10531576;28;2986;-72
2022/09/29 12:51:58;;;;;;;;;;;10.20;99.90;;;9.07;100.00;94319.03;10556208;28;3288;-72
2022/09/29 12:57:01;;;;;;;;;;;10.10;99.90;;;9.01;100.00;94325.59;10541676;28;3171;-72
2022/09/29 13:02:03;;;;;;;;;;;10.10;99.90;;;9.10;100.00;94323.81;10554312;28;3137;-69
2022/09/29 13:07:06;;;;;;;;;;;10.10;99.90;;;9.03;100.00;94328.75;10561459;28;3191;-74
2022/09/29 13:12:09;;;;;;;;;;;10.00;99.90;;;9.18;100.00;94325.78;10550986;28;3144;-71
2022/09/29 13:17:12;;;;;;;;;;;10.00;99.90;;;9.56;100.00;94328.19;10548376;28;3473;-68
2022/09/29 13:22:15;;;;;;;;;;;10.20;99.90;;;9.58;100.00;94331.38;10560619;28;3100;-70
2022/09/29 13:27:19;;;;;;;;;;;10.40;99.90;;;9.47;100.00;94335.34;10557875;28;3155;-70
2022/09/29 13:32:22;;;;;;;;;;;10.40;99.90;;;9.46;100.00;94336.47;10555972;28;3279;-71
2022/09/29 13:37:25;;;;;;;;;;;10.40;99.90;;;9.73;100.00;94344.47;10561880;28;3164;-75
2022/09/29 13:42:28;;;;;;;;;;;10.50;99.90;;;9.47;100.00;94351.44;10564770;28;3155;-72
2022/09/29 13:47:31;;;;;;;;;;;10.50;99.90;;;9.60;100.00;94339.09;10563437;28;3183;-70
2022/09/29 13:52:33;;;;;;;;;;;10.50;99.90;;;9.62;100.00;94358.41;10555808;28;3247;-70
2022/09/29 13:57:36;;;;;;;;;;;10.50;99.90;;;9.59;100.00;94354.41;10565097;28;3033;-69
2022/09/29 14:02:40;;;;;;;;;;;10.50;99.90;;;9.47;100.00;94356.81;10557374;28;2898;-70
2022/09/29 14:07:43;;;;;;;;;;;10.50;99.90;;;9.62;100.00;94359.19;10556749;28;2898;-69
2022/09/29 14:12:46;;;;;;;;;;;10.50;99.90;;;9.68;100.00;94371.41;10565132;28;3242;-68
2022/09/29 14:17:54;;;;;;;;;;;10.60;99.90;;;9.62;100.00;94369.13;10559049;28;2907;-72
2022/09/29 14:22:57;;;;;;;;;;;10.70;99.90;;;9.30;100.00;94375.44;10559652;28;2891;-72
2022/09/29 14:28:00;;;;;;;;;;;10.50;99.90;;;9.19;100.00;94382.88;10569570;28;3282;-69
2022/09/29 14:33:05;;;;;;;;;;;10.30;99.90;;;9.09;100.00;94383.06;10551960;28;2853;-71
2022/09/29 14:38:08;;;;;;;;;;;10.20;99.90;;;9.11;100.00;94389.72;10553962;28;2930;-70
2022/09/29 14:43:12;;;;;;;;;;;10.10;99.90;;;8.94;100.00;94405.59;10556136;28;2836;-69
2022/09/29 14:53:38;;;;;;;;;;;9.90;99.90;;;8.68;100.00;94423.22;10554338;28;3132;-69
2022/09/29 14:58:41;;;;;;;;;;;9.80;99.90;;;8.88;100.00;94422.84;10545327;28;3167;-69
2022/09/29 15:03:44;;;;;;;;;;;9.80;99.90;;;8.87;100.00;94421.25;10563112;28;3266;-69
2022/09/29 15:08:47;;;;;;;;;;;9.80;99.90;;;8.57;100.00;94431.41;10555762;27;3194;-69
2022/09/29 15:13:50;;;;;;;;;;;9.70;99.90;;;8.42;100.00;94429.00;10556205;28;2905;-68
2022/09/29 15:18:53;;;;;;;;;;;9.50;99.90;;;8.35;100.00;94433.91;10561071;28;3168;-69
2022/09/29 15:23:56;;;;;;;;;;;9.40;99.90;;;8.19;100.00;94449.38;10537900;28;2993;-69
2022/09/29 15:28:59;;;;;;;;;;;9.30;99.90;;;8.16;100.00;94441.16;10559808;28;2944;-69
2022/09/29 15:34:01;;;;;;;;;;;9.20;99.90;;;8.20;100.00;94436.78;10564383;28;3112;-69
2022/09/29 15:39:04;;;;;;;;;;;9.10;99.90;;;8.07;100.00;94436.44;10562001;28;2934;-72
2022/09/29 15:44:07;;;;;;;;;;;9.10;99.90;;;8.08;100.00;94440.72;10550525;28;3265;-68
2022/09/29 15:49:10;;;;;;;;;;;9.10;99.90;;;7.94;100.00;94445.19;10554788;28;3399;-68
2022/09/29 15:54:13;;;;;;;;;;;9.00;99.90;;;7.92;100.00;94441.22;10548215;28;3595;-69
2022/09/29 15:59:16;;;;;;;;;;;8.90;99.90;;;7.99;100.00;94444.31;10524112;28;3207;-69
2022/09/29 16:04:19;;;;;;;;;;;8.90;99.90;;;8.00;100.00;94449.38;10554419;28;3624;-69
2022/09/29 16:09:22;;;;;;;;;;;8.90;99.90;;;7.94;100.00;94447.06;10547667;28;3032;-71
2022/09/29 16:14:26;;;;;;;;;;;9.00;99.90;;;8.04;100.00;94445.06;10556679;28;3251;-69
2022/09/29 16:19:31;;;;;;;;;;;9.00;99.90;;;8.04;100.00;94446.94;10562121;28;3247;-69
2022/09/29 16:24:34;;;;;;;;;;;9.00;99.90;;;7.95;100.00;94452.16;10548014;28;3141;-69
2022/09/29 16:29:36;;;;;;;;;;;8.90;99.90;;;7.99;100.00;94453.16;10555416;28;3066;-68
2022/09/29 16:34:40;;;;;;;;;;;8.90;99.90;;;7.92;100.00;94454.59;10571533;28;3374;-70
2022/09/29 16:39:43;;;;;;;;;;;8.90;99.90;;;7.90;100.00;94473.63;10567974;28;3355;-68
2022/09/29 16:44:46;;;;;;;;;;;8.90;99.90;;;7.82;100.00;94474.25;10564515;28;3402;-69
2022/09/29 16:49:55;;;;;;;;;;;8.90;99.90;;;7.83;100.00;94487.34;10556519;28;3374;-71
2022/09/29 16:54:58;;;;;;;;;;;8.90;99.90;;;7.85;100.00;94498.56;10555514;28;3128;-74
2022/09/29 17:00:01;;;;;;;;;;;8.80;99.90;;;7.89;100.00;94501.47;10556880;28;3374;-69
2022/09/29 17:05:06;;;;;;;;;;;8.90;99.90;;;7.91;100.00;94504.66;10546891;28;3481;-70
2022/09/29 17:10:09;;;;;;;;;;;8.90;99.90;;;7.99;100.00;94509.34;10562391;28;3328;-73
2022/09/29 17:15:12;;;;;;;;;;;8.90;99.90;;;7.96;100.00;94517.97;10569075;28;3322;-71
2022/09/29 17:20:15;;;;;;;;;;;8.90;99.90;;;8.04;100.00;94529.91;10570296;28;3295;-71
2022/09/29 17:25:18;;;;;;;;;;;8.90;99.90;;;7.96;100.00;94531.34;10571288;28;3148;-71
2022/09/29 17:30:22;;;;;;;;;;;8.90;99.90;;;7.93;100.00;94550.63;10569524;28;3255;-69
2022/09/29 17:35:25;;;;;;;;;;;8.90;99.90;;;7.87;100.00;94551.78;10573209;28;3302;-70
2022/09/29 17:40:27;;;;;;;;;;;8.90;99.90;;;7.75;100.00;94560.19;10579662;28;3434;-68
2022/09/29 17:45:41;;;;;;;;;;;8.80;99.90;;;7.75;100.00;94565.53;10567122;28;3327;-70
2022/09/29 17:50:44;;;;;;;;;;;8.60;99.90;;;7.76;100.00;94572.50;10572727;28;3358;-72
2022/09/29 17:55:48;;;;;;;;;;;8.70;99.90;;;7.79;100.00;94573.81;10565284;28;1498;-70
2022/09/29 18:00:51;;;;;;;;;;;8.70;99.90;;;7.85;100.00;94576.16;10573190;28;3418;-70
2022/09/29 18:05:55;;;;;;;;;;;8.80;99.90;;;7.84;100.00;94579.13;10573640;28;3186;-69
2022/09/29 18:10:58;;;;;;;;;;;8.80;99.90;;;7.86;100.00;94587.63;10570148;28;3454;-69
2022/09/29 18:16:01;;;;;;;;;;;8.80;99.90;;;7.90;100.00;94588.69;10569966;28;3039;-71
2022/09/29 18:21:05;;;;;;;;;;;8.80;99.90;;;7.84;100.00;94574.56;10567291;28;3339;-71
2022/09/29 18:26:08;;;;;;;;;;;8.80;99.90;;;7.82;100.00;94575.91;10567203;28;3120;-70
2022/09/29 18:31:11;;;;;;;;;;;8.80;99.90;;;7.83;100.00;94582.88;10561987;28;1981;-69
2022/09/29 18:36:14;;;;;;;;;;;8.80;99.90;;;7.85;100.00;94580.69;10571735;28;3410;-76
2022/09/29 18:41:18;;;;;;;;;;;8.90;99.90;;;7.83;100.00;94598.94;10562320;28;3318;-76
2022/09/29 18:46:22;;;;;;;;;;;8.80;99.90;;;7.75;100.00;94580.81;10551040;28;2840;-75
2022/09/29 18:51:25;;;;;;;;;;;8.80;99.90;;;7.70;100.00;94595.06;10538295;28;3312;-74
2022/09/29 18:56:29;;;;;;;;;;;8.80;99.90;;;7.72;100.00;94584.06;10552866;28;3335;-76
2022/09/29 19:01:34;;;;;;;;;;;8.70;99.90;;;7.59;100.00;94597.03;10558451;28;3778;-76
2022/09/29 19:06:38;;;;;;;;;;;8.70;99.90;;;7.63;100.00;94601.78;10568128;28;3330;-75
2022/09/29 19:11:44;;;;;;;;;;;8.60;99.90;;;7.56;100.00;94607.47;10562714;28;3283;-75
2022/09/29 19:16:47;;;;;;;;;;;8.50;99.90;;;7.53;100.00;94606.19;10561359;28;3350;-76
2022/09/29 19:21:50;;;;;;;;;;;8.50;99.90;;;7.46;100.00;94600.38;10549139;28;3380;-74
2022/09/29 19:26:53;;;;;;;;;;;8.50;99.90;;;7.44;100.00;94613.19;10570146;28;3283;-74
2022/09/29 19:31:56;;;;;;;;;;;8.50;99.90;;;7.39;100.00;94615.94;10572179;28;3082;-76
2022/09/29 19:36:59;;;;;;;;;;;8.40;99.90;;;7.43;100.00;94616.97;10560172;28;3445;-76
2022/09/29 19:42:02;;;;;;;;;;;8.50;99.90;;;7.45;100.00;94614.81;10549502;28;3063;-76
2022/09/29 19:47:05;;;;;;;;;;;8.50;99.90;;;7.44;100.00;94612.41;10550571;28;3581;-75
2022/09/29 19:52:08;;;;;;;;;;;8.50;99.90;;;7.41;100.00;94599.63;10559846;28;3401;-75
2022/09/29 19:57:11;;;;;;;;;;;8.50;99.90;;;7.43;100.00;94605.47;10553586;28;3286;-75
2022/09/29 20:02:14;;;;;;;;;;;8.40;99.90;;;7.44;100.00;94610.53;10567880;28;3362;-74
2022/09/29 20:07:16;;;;;;;;;;;8.40;99.90;;;7.36;100.00;94616.50;10551264;28;3306;-74
2022/09/29 20:12:19;;;;;;;;;;;8.40;99.90;;;7.36;100.00;94629.06;10565117;28;3406;-73
2022/09/29 20:17:24;;;;;;;;;;;8.40;99.90;;;7.34;100.00;94644.59;10534083;28;3248;-75
2022/09/29 20:22:30;;;;;;;;;;;8.40;99.90;;;7.29;100.00;94648.91;10540476;28;3006;-75
2022/09/29 20:27:36;;;;;;;;;;;8.30;99.90;;;7.27;100.00;94644.91;10566602;27;3274;-75
2022/09/29 20:32:39;;;;;;;;;;;8.30;99.90;;;7.30;100.00;94652.38;10552254;28;3398;-73
2022/09/29 20:37:42;;;;;;;;;;;8.30;99.90;;;7.32;100.00;94643.00;10546367;28;3031;-77
2022/09/29 20:42:47;;;;;;;;;;;8.40;99.90;;;7.32;100.00;94652.91;10542970;28;3310;-73
2022/09/29 20:47:50;;;;;;;;;;;8.30;99.90;;;7.33;100.00;94673.22;10547690;28;3040;-74
2022/09/29 20:52:53;;;;;;;;;;;8.40;99.90;;;7.36;100.00;94679.84;10556828;28;3515;-72
2022/09/29 20:57:56;;;;;;;;;;;8.40;99.90;;;7.39;100.00;94690.81;10558432;28;3334;-74
2022/09/29 21:02:59;;;;;;;;;;;8.40;99.90;;;7.48;100.00;94688.31;10561479;28;3066;-74
2022/09/29 21:08:02;;;;;;;;;;;8.50;99.90;;;7.53;100.00;94685.59;10561557;28;3370;-72
2022/09/29 21:13:05;;;;;;;;;;;8.50;99.90;;;7.51;100.00;94682.44;10557597;28;3354;-73
2022/09/29 21:18:10;;;;;;;;;;;8.50;99.90;;;7.53;100.00;94697.09;10562392;28;3015;-75
2022/09/29 21:23:16;;;;;;;;;;;8.50;99.90;;;7.59;100.00;94695.97;10531433;28;3405;-73
2022/09/29 21:28:20;;;;;;;;;;;;;;;7.65;100.00;94699.41;10558417;28;3259;-72
2022/09/29 21:33:26;;;;;;;;;;;8.90;99.90;;;7.63;100.00;94701.53;10564937;28;3315;-72
2022/09/29 21:38:30;;;;;;;;;;;8.70;99.90;;;7.55;100.00;94707.50;10564693;28;3041;-73
2022/09/29 21:43:33;;;;;;;;;;;8.40;99.90;;;7.61;100.00;94697.56;10550455;28;3310;-73
2022/09/29 21:48:41;;;;;;;;;;;8.50;99.90;;;7.61;100.00;94710.94;10548613;28;3464;-74
2022/09/29 21:53:47;;;;;;;;;;;8.50;99.90;;;7.66;100.00;94714.38;10567576;28;3333;-73
2022/09/29 21:58:51;;;;;;;;;;;8.40;99.90;;;7.59;100.00;94712.03;10573847;28;3078;-73
2022/09/29 22:03:54;;;;;;;;;;;8.50;99.90;;;7.54;100.00;94712.06;10562659;28;3105;-73
2022/09/29 22:08:57;;;;;;;;;;;8.60;99.90;;;7.58;100.00;94715.78;10569349;28;3311;-73
2022/09/29 22:14:00;;;;;;;;;;;8.40;99.90;;;7.66;100.00;94716.25;10541771;28;3080;-73
2022/09/29 22:19:03;;;;;;;;;;;8.70;99.90;;;7.56;100.00;94728.63;10557712;28;3329;-72
2022/09/29 22:24:27;;;;;;;;;;;8.40;99.90;;;7.55;100.00;94721.69;10565623;28;3334;-74
2022/09/29 22:29:29;;;;;;;;;;;8.40;99.90;;;7.56;100.00;94725.94;10565044;28;3516;-73
2022/09/29 22:34:33;;;;;;;;;;;8.50;99.90;;;7.58;100.00;94737.19;10547011;28;3271;-78
2022/09/29 22:39:37;;;;;;;;;;;8.40;99.90;;;7.59;100.00;94738.78;10555576;28;3002;-73
2022/09/29 22:44:47;;;;;;;;;;;8.50;99.90;;;7.64;100.00;94745.97;10562503;28;3318;-72
2022/09/29 22:49:53;;;;;;;;;;;8.50;99.90;;;7.65;100.00;94746.75;10541656;28;3357;-73
2022/09/29 22:55:04;;;;;;;;;;;8.50;99.90;;;7.68;100.00;94730.13;10565874;28;3446;-73
2022/09/29 23:00:09;;;;;;;;;;;8.60;99.90;;;7.66;100.00;94730.44;10562902;28;3026;-73
2022/09/29 23:05:23;;;;;;;;;;;8.80;99.90;;;7.58;100.00;94731.84;10550320;28;3365;-72
2022/09/29 23:10:29;;;;;;;;;;;8.60;99.90;;;7.70;100.00;94733.31;10561598;28;3326;-72
2022/09/29 23:15:32;;;;;;;;;;;8.70;99.90;;;7.68;100.00;94735.50;10572209;28;3319;-72
2022/09/29 23:20:36;;;;;;;;;;;8.70;99.90;;;7.70;100.00;94733.31;10567862;28;3046;-72
2022/09/29 23:25:38;;;;;;;;;;;8.60;99.90;;;7.55;100.00;94737.72;10568451;28;3144;-72
2022/09/29 23:30:41;;;;;;;;;;;8.70;99.90;;;7.64;100.00;94739.81;10570809;28;3295;-72
2022/09/29 23:35:44;;;;;;;;;;;8.60;99.90;;;7.56;100.00;94744.66;10542340;28;3303;-72
2022/09/29 23:40:47;;;;;;;;;;;8.70;99.90;;;7.58;100.00;94742.53;10560581;28;3038;-72
2022/09/29 23:45:50;;;;;;;;;;;8.60;99.90;;;7.51;100.00;94735.91;10564943;28;3287;-73
2022/09/29 23:50:53;;;;;;;;;;;8.60;99.90;;;7.49;100.00;94738.84;10559428;28;3248;-72
2022/09/29 23:55:55;;;;;;;;;;;8.50;99.90;;;7.47;100.00;94746.34;10560186;28;3406;-74
